createdAt,value
2018-11-22T12:15:54.729Z,48.30
2018-11-22T12:18:23.029Z,58.23
2018-11-22T12:20:50.571Z,51.37
2018-11-22T12:23:18.357Z,67.37
2018-11-22T12:25:45.936Z,49.53
2018-11-22T12:28:13.512Z,56.20
2018-11-22T12:30:41.059Z,56.90
2018-11-22T12:33:09.449Z,54.87
2018-11-22T12:35:37.008Z,54.17
2018-11-22T12:38:05.539Z,66.23
2018-11-22T12:40:33.094Z,55.80
2018-11-22T12:43:00.746Z,51.13
2018-11-22T12:45:28.339Z,60.90
2018-11-22T12:47:57.918Z,63.17
2018-11-22T12:50:25.470Z,60.53
2018-11-22T12:52:53.044Z,60.03
2018-11-22T12:55:20.626Z,56.73
2018-11-22T12:57:48.211Z,57.77
2018-11-22T13:00:16.524Z,58.00
2018-11-22T13:02:44.063Z,59.67
2018-11-22T13:05:11.659Z,62.63
2018-11-22T13:07:40.152Z,53.60
2018-11-22T13:10:07.727Z,68.13
2018-11-22T13:12:35.315Z,55.87
2018-11-22T13:15:02.861Z,65.03
2018-11-22T13:17:31.211Z,66.13
2018-11-22T13:19:58.791Z,69.60
2018-11-22T13:22:26.340Z,66.57
2018-11-22T13:24:55.882Z,66.10
2018-11-22T13:27:25.427Z,68.33
2018-11-22T13:29:52.999Z,64.60
2018-11-22T13:32:21.671Z,61.00
2018-11-22T13:34:49.140Z,64.63
2018-11-22T13:37:17.647Z,61.10
2018-11-22T13:39:46.009Z,57.83
2018-11-22T13:42:14.319Z,59.43
2018-11-22T13:44:41.899Z,60.57
2018-11-22T13:47:09.464Z,53.77
2018-11-22T13:49:37.040Z,61.07
2018-11-22T13:52:04.599Z,53.17
2018-11-22T13:54:32.186Z,50.40
2018-11-22T13:56:59.727Z,54.00
2018-11-22T13:59:28.067Z,55.53
2018-11-22T14:01:55.650Z,53.20
2018-11-22T14:04:23.235Z,64.20
2018-11-22T14:06:50.788Z,53.87
2018-11-22T14:09:19.133Z,62.87
2018-11-22T14:11:46.711Z,58.23
2018-11-22T14:14:14.295Z,60.43
2018-11-22T14:16:41.848Z,57.30
2018-11-22T14:19:09.424Z,62.70
2018-11-22T14:21:36.992Z,59.53
2018-11-22T14:24:04.568Z,63.50
2018-11-22T14:26:32.118Z,56.47
2018-11-22T14:28:59.697Z,55.23
2018-11-22T14:31:27.291Z,62.67
2018-11-22T14:33:56.850Z,57.20
2018-11-22T14:36:24.396Z,61.50
2018-11-22T14:38:53.903Z,56.00
2018-11-22T14:41:21.488Z,66.13
2018-11-22T14:43:49.060Z,63.17
2018-11-22T14:46:17.387Z,54.57
2018-11-22T14:48:44.947Z,71.93
2018-11-22T14:51:12.524Z,57.70
2018-11-22T14:53:40.063Z,61.60
2018-11-22T14:56:07.649Z,66.33
2018-11-22T14:58:35.236Z,38.80
2018-11-22T15:01:02.784Z,39.90
2018-11-22T15:03:31.155Z,32.10
2018-11-22T15:05:59.502Z,45.40
2018-11-22T15:08:27.082Z,35.70
2018-11-22T15:10:54.620Z,37.03
2018-11-22T15:13:22.199Z,32.47
2018-11-22T15:15:51.507Z,31.53
2018-11-22T15:18:19.847Z,33.10
2018-11-22T15:20:47.396Z,36.77
2018-11-22T15:23:14.974Z,43.13
2018-11-22T15:25:42.551Z,45.47
2018-11-22T15:28:10.898Z,47.90
2018-11-22T15:30:38.443Z,45.60
2018-11-22T15:33:06.020Z,36.53
2018-11-22T15:35:33.612Z,28.77
2018-11-22T15:38:01.188Z,30.23
2018-11-22T15:40:28.743Z,25.77
2018-11-22T15:42:56.320Z,34.70
2018-11-22T15:45:23.900Z,25.20
2018-11-22T15:47:51.498Z,26.67
2018-11-22T15:50:19.047Z,33.30
2018-11-22T15:52:47.478Z,36.53
2018-11-22T15:55:20.809Z,38.90
2018-11-22T15:57:44.076Z,33.37
2018-11-22T16:00:12.705Z,38.23
2018-11-22T16:02:41.364Z,39.30
2018-11-22T16:05:09.149Z,36.03
2018-11-22T16:07:38.340Z,34.10
2018-11-22T16:10:06.350Z,40.07
2018-11-22T16:12:34.299Z,33.97
2018-11-22T16:15:02.134Z,35.80
2018-11-22T16:17:29.748Z,32.00
2018-11-22T16:19:57.328Z,34.40
2018-11-22T16:22:26.650Z,30.97
2018-11-22T16:24:55.830Z,38.80
2018-11-22T16:27:23.415Z,35.87
2018-11-22T16:29:50.963Z,35.67
2018-11-22T16:32:18.544Z,38.07
2018-11-22T16:34:46.084Z,39.60
2018-11-22T16:37:13.746Z,33.87
2018-11-22T16:39:41.288Z,40.80
2018-11-22T16:42:08.872Z,37.03
2018-11-22T16:44:36.412Z,35.00
2018-11-22T16:47:04.976Z,36.57
2018-11-22T16:49:32.530Z,31.33
2018-11-22T16:52:00.111Z,34.37
2018-11-22T16:54:27.643Z,37.83
2018-11-22T16:56:55.235Z,38.90
2018-11-22T16:59:22.774Z,43.40
2018-11-22T17:01:50.352Z,44.40
2018-11-22T17:04:18.847Z,63.47
2018-11-22T17:06:46.424Z,70.57
2018-11-22T17:09:14.938Z,47.77
2018-11-22T17:11:42.514Z,49.97
2018-11-22T17:14:11.022Z,46.57
2018-11-22T17:16:38.624Z,43.93
2018-11-22T17:19:06.186Z,56.80
2018-11-22T17:21:33.727Z,47.47
2018-11-22T17:24:01.313Z,41.57
2018-11-22T17:26:30.773Z,40.33
2018-11-22T17:28:58.347Z,42.37
2018-11-22T17:31:25.960Z,43.33
2018-11-22T17:33:53.539Z,37.47
2018-11-22T17:36:21.144Z,48.03
2018-11-22T17:38:48.742Z,39.33
2018-11-22T17:41:16.291Z,37.50
2018-11-22T17:43:45.859Z,38.13
2018-11-22T17:46:13.446Z,39.63
2018-11-22T17:48:41.032Z,37.30
2018-11-22T17:51:08.605Z,45.63
2018-11-22T17:53:36.197Z,49.17
2018-11-22T17:56:03.776Z,50.13
2018-11-22T17:58:31.363Z,56.90
2018-11-22T18:00:58.913Z,57.47
2018-11-22T18:03:26.493Z,65.17
2018-11-22T18:05:54.140Z,63.90
2018-11-22T18:08:21.727Z,134.20
2018-11-22T18:10:49.279Z,135.23
2018-11-22T18:13:16.871Z,99.17
2018-11-22T18:15:44.456Z,57.43
2018-11-22T18:18:11.997Z,61.87
2018-11-22T18:20:39.580Z,42.63
2018-11-22T18:23:11.480Z,38.00
2018-11-22T18:25:35.694Z,36.67
2018-11-22T18:28:03.279Z,47.30
2018-11-22T18:30:30.865Z,54.00
2018-11-22T18:32:58.456Z,56.60
2018-11-22T18:35:26.985Z,50.33
2018-11-22T18:37:55.327Z,48.03
2018-11-22T18:40:22.892Z,43.03
2018-11-22T18:42:50.447Z,43.80
2018-11-22T18:45:18.080Z,38.17
2018-11-22T18:47:45.689Z,41.30
2018-11-22T18:50:15.757Z,34.30
2018-11-22T18:52:41.807Z,32.37
2018-11-22T18:55:11.339Z,32.93
2018-11-22T18:57:38.905Z,31.73
2018-11-22T19:00:06.498Z,38.43
2018-11-22T19:02:34.088Z,35.47
2018-11-22T19:05:01.641Z,34.13
2018-11-22T19:07:29.222Z,28.83
2018-11-22T19:09:56.831Z,31.80
2018-11-22T19:12:24.594Z,31.60
2018-11-22T19:14:52.182Z,28.43
2018-11-22T19:17:19.768Z,30.37
2018-11-22T19:19:47.344Z,32.07
2018-11-22T19:22:14.887Z,55.60
2018-11-22T19:24:42.462Z,32.67
2018-11-22T19:27:11.952Z,37.77
2018-11-22T19:29:40.508Z,36.73
2018-11-22T19:32:08.060Z,38.30
2018-11-22T19:34:35.610Z,43.73
2018-11-22T19:37:03.960Z,48.57
2018-11-22T19:39:32.516Z,41.70
2018-11-22T19:42:00.136Z,44.70
2018-11-22T19:44:27.676Z,43.50
2018-11-22T19:46:55.319Z,41.67
2018-11-22T19:49:22.880Z,44.03
2018-11-22T19:51:50.461Z,44.00
2018-11-22T19:54:18.014Z,35.63
2018-11-22T19:56:47.571Z,37.53
2018-11-22T19:59:15.120Z,35.57
2018-11-22T20:01:42.712Z,47.00
2018-11-22T20:04:10.258Z,56.67
2018-11-22T20:06:37.802Z,38.13
2018-11-22T20:09:05.391Z,32.40
2018-11-22T20:11:32.936Z,32.13
2018-11-22T20:14:02.454Z,29.47
2018-11-22T20:16:29.995Z,28.37
2018-11-22T20:18:57.576Z,29.70
2018-11-22T20:21:25.136Z,29.97
2018-11-22T20:23:52.728Z,29.90
2018-11-22T20:26:20.280Z,38.00
2018-11-22T20:28:48.647Z,34.20
2018-11-22T20:31:16.966Z,41.90
2018-11-22T20:33:44.539Z,44.47
2018-11-22T20:36:12.079Z,48.67
2018-11-22T20:38:39.671Z,43.70
2018-11-22T20:41:07.219Z,43.27
2018-11-22T20:43:34.803Z,56.23
2018-11-22T20:46:02.360Z,38.10
2018-11-22T20:48:29.935Z,35.53
2018-11-22T20:50:57.486Z,38.43
2018-11-22T20:53:25.072Z,30.50
2018-11-22T20:55:52.840Z,26.23
2018-11-22T20:58:20.389Z,29.50
2018-11-22T21:00:47.964Z,33.10
2018-11-22T21:03:15.516Z,38.83
2018-11-22T21:05:44.053Z,66.23
2018-11-22T21:08:11.630Z,35.43
2018-11-22T21:10:39.941Z,27.03
2018-11-22T21:13:07.516Z,28.50
2018-11-22T21:15:35.091Z,27.60
2018-11-22T21:18:02.676Z,26.17
2018-11-22T21:20:31.000Z,27.20
2018-11-22T21:22:58.551Z,29.10
2018-11-22T21:25:26.136Z,25.97
2018-11-22T21:27:53.682Z,30.83
2018-11-22T21:30:22.235Z,29.80
2018-11-22T21:32:49.792Z,26.73
2018-11-22T21:35:17.385Z,27.70
2018-11-22T21:37:44.996Z,25.80
2018-11-22T21:40:13.505Z,24.57
2018-11-22T21:42:41.131Z,24.73
2018-11-22T21:45:08.688Z,25.23
2018-11-22T21:47:36.265Z,20.70
2018-11-22T21:50:03.862Z,26.80
2018-11-22T21:52:31.415Z,23.43
2018-11-22T21:54:58.996Z,19.67
2018-11-22T21:57:26.579Z,18.97
2018-11-22T21:59:54.171Z,18.20
2018-11-22T22:02:21.712Z,23.13
2018-11-22T22:04:49.306Z,22.10
2018-11-22T22:07:16.966Z,17.27
2018-11-22T22:09:44.543Z,20.70
2018-11-22T22:12:12.084Z,30.50
2018-11-22T22:14:39.670Z,21.97
2018-11-22T22:17:08.014Z,27.63
2018-11-22T22:19:35.596Z,27.50
2018-11-22T22:22:03.135Z,18.77
2018-11-22T22:24:32.699Z,18.03
2018-11-22T22:27:02.195Z,18.50
2018-11-22T22:29:30.749Z,19.10
2018-11-22T22:31:58.296Z,19.83
2018-11-22T22:34:26.633Z,23.27
2018-11-22T22:36:54.212Z,19.43
2018-11-22T22:39:21.759Z,20.57
2018-11-22T22:41:49.401Z,27.83
2018-11-22T22:44:16.941Z,19.70
2018-11-22T22:46:44.528Z,15.80
2018-11-22T22:49:12.080Z,17.83
2018-11-22T22:51:39.680Z,15.90
2018-11-22T22:54:09.298Z,15.70
2018-11-22T22:56:36.908Z,16.50
2018-11-22T22:59:04.468Z,12.83
2018-11-22T23:01:32.047Z,14.70
2018-11-22T23:03:59.596Z,14.20
2018-11-22T23:06:27.320Z,14.40
2018-11-22T23:08:56.870Z,14.33
2018-11-22T23:11:24.515Z,14.43
2018-11-22T23:13:52.097Z,12.90
2018-11-22T23:16:21.340Z,16.63
2018-11-22T23:18:48.925Z,18.00
2018-11-22T23:21:16.468Z,17.53
2018-11-22T23:23:44.060Z,17.73
2018-11-22T23:26:11.723Z,20.40
2018-11-22T23:28:39.300Z,18.73
2018-11-22T23:31:06.847Z,22.13
2018-11-22T23:33:34.438Z,14.80
2018-11-22T23:36:01.980Z,14.03
2018-11-22T23:38:29.565Z,14.90
2018-11-22T23:40:57.112Z,11.03
2018-11-22T23:43:24.688Z,10.67
2018-11-22T23:45:52.280Z,10.83
2018-11-22T23:48:19.863Z,10.20
2018-11-22T23:50:47.407Z,10.93
2018-11-22T23:53:14.983Z,11.27
2018-11-22T23:55:42.551Z,10.60
2018-11-22T23:58:10.242Z,12.10
